Time;durP1;ratioP1;P1;durP2;ratioP2;P2;SDS_P1;SDS_P2;PMS_P1;PMS_P2;Temp;Humidity;BMP_temperature;BMP_pressure;BME280_temperature;BME280_humidity;BME280_pressure;Samples;Min_cycle;Max_cycle;Signal;HPM_P1;HPM_P2
2021/04/16 00:00:27;;;;;;;4.15;3.50;;;0.10;99.90;;;;;;4163955;28;20029;-78
2021/04/16 00:02:27;;;;;;;4.32;3.80;;;0.00;99.90;;;;;;4163810;28;20026;-78
2021/04/16 00:04:28;;;;;;;5.55;4.05;;;0.00;99.90;;;;;;4150333;28;20112;-77
2021/04/16 00:06:29;;;;;;;5.82;3.83;;;0.00;99.90;;;;;;4163785;28;20033;-77
2021/04/16 00:08:32;;;;;;;4.10;3.70;;;-0.10;99.90;;;;;;4164048;28;20052;-78
2021/04/16 00:10:37;;;;;;;5.75;3.65;;;-0.10;99.90;;;;;;4164065;28;20084;-78
2021/04/16 00:12:37;;;;;;;5.57;3.80;;;-0.10;99.90;;;;;;4162576;28;20041;-78
2021/04/16 00:14:38;;;;;;;8.23;4.03;;;-0.20;99.90;;;;;;4163873;28;20369;-77
2021/04/16 00:16:39;;;;;;;5.03;3.85;;;-0.20;99.90;;;;;;4161826;28;20045;-77
2021/04/16 00:18:40;;;;;;;6.82;4.00;;;-0.20;99.90;;;;;;4161715;28;20033;-77
2021/04/16 00:20:42;;;;;;;5.32;3.83;;;-0.20;99.90;;;;;;4163405;28;20037;-77
2021/04/16 00:22:42;;;;;;;4.30;3.78;;;-0.20;99.90;;;;;;4164137;28;20060;-78
2021/04/16 00:24:43;;;;;;;4.38;3.85;;;-0.10;99.90;;;;;;4163256;28;20435;-77
2021/04/16 00:26:45;;;;;;;6.00;4.47;;;-0.20;99.90;;;;;;4163456;28;20029;-77
2021/04/16 00:28:46;;;;;;;4.82;3.83;;;-0.10;99.90;;;;;;4163415;28;20045;-78
2021/04/16 00:30:50;;;;;;;6.18;4.15;;;-0.10;99.90;;;;;;4165034;28;20580;-78
2021/04/16 00:32:51;;;;;;;5.22;3.65;;;-0.20;99.90;;;;;;4146754;28;20061;-77
2021/04/16 00:34:52;;;;;;;6.60;4.03;;;-0.20;99.90;;;;;;4178083;28;20570;-77
2021/04/16 00:36:54;;;;;;;4.80;4.22;;;-0.20;99.90;;;;;;4163412;28;20029;-78
2021/04/16 00:38:55;;;;;;;7.38;5.03;;;-0.20;99.90;;;;;;4163743;28;20037;-77
2021/04/16 00:40:59;;;;;;;6.85;4.47;;;-0.30;99.90;;;;;;4163256;28;20041;-77
2021/04/16 00:43:02;;;;;;;5.05;3.85;;;-0.30;99.90;;;;;;4162893;28;20038;-78
2021/04/16 00:45:05;;;;;;;5.22;4.30;;;-0.30;99.90;;;;;;4162563;28;20021;-77
2021/04/16 00:47:13;;;;;;;4.70;3.97;;;-0.30;99.90;;;;;;4163153;28;20029;-78
2021/04/16 00:49:22;;;;;;;5.28;4.10;;;-0.30;99.90;;;;;;4164005;28;20129;-78
2021/04/16 00:51:42;;;;;;;6.20;4.15;;;-0.40;99.90;;;;;;4162685;28;20095;-78
2021/04/16 00:53:44;;;;;;;9.80;4.72;;;-0.40;99.90;;;;;;4174536;28;20029;-77
2021/04/16 00:55:45;;;;;;;4.95;3.95;;;-0.40;99.90;;;;;;4163841;28;20036;-77
2021/04/16 00:57:46;;;;;;;6.50;4.57;;;-0.50;99.90;;;;;;4162810;28;20072;-77
2021/04/16 00:59:57;;;;;;;6.47;4.45;;;-0.40;99.90;;;;;;4164419;28;20507;-77
2021/04/16 01:02:01;;;;;;;7.68;4.53;;;-0.50;99.90;;;;;;4164378;28;20065;-77
2021/04/16 01:04:02;;;;;;;5.50;4.75;;;-0.60;99.90;;;;;;4162510;28;20567;-78
2021/04/16 01:06:07;;;;;;;7.43;4.72;;;-0.60;99.90;;;;;;4163946;28;20044;-78
2021/04/16 01:08:09;;;;;;;6.25;4.53;;;-0.60;99.90;;;;;;4164283;28;20040;-78
2021/04/16 01:10:10;;;;;;;10.75;5.00;;;-0.70;99.90;;;;;;4164411;28;20100;-77
2021/04/16 01:12:12;;;;;;;6.18;4.70;;;-0.70;99.90;;;;;;4162851;28;20041;-78
2021/04/16 01:14:15;;;;;;;6.82;4.70;;;-0.70;99.90;;;;;;4162693;28;20017;-77
2021/04/16 01:16:18;;;;;;;9.40;4.40;;;-0.80;99.90;;;;;;4162426;28;20026;-77
2021/04/16 01:18:22;;;;;;;7.07;4.70;;;-0.80;99.90;;;;;;4162583;28;20028;-77
2021/04/16 01:20:27;;;;;;;8.40;4.88;;;-0.80;99.90;;;;;;4162589;28;20033;-78
2021/04/16 01:22:45;;;;;;;7.45;5.00;;;-0.80;99.90;;;;;;4164275;28;20026;-78
2021/04/16 01:24:46;;;;;;;6.53;5.20;;;-0.80;99.90;;;;;;4162526;28;20062;-77
2021/04/16 01:26:47;;;;;;;5.60;4.40;;;-0.90;99.90;;;;;;4164024;28;20445;-77
2021/04/16 01:28:48;;;;;;;7.57;4.60;;;-0.90;99.90;;;;;;4163853;28;20048;-77
2021/04/16 01:31:00;;;;;;;8.13;4.68;;;-0.90;99.90;;;;;;4162470;28;20171;-77
2021/04/16 01:33:02;;;;;;;5.35;4.18;;;-0.90;99.90;;;;;;4163559;28;20484;-80
2021/04/16 01:35:09;;;;;;;8.27;4.90;;;-0.90;99.90;;;;;;4162112;28;20029;-78
2021/04/16 01:37:10;;;;;;;7.45;4.85;;;-0.90;99.90;;;;;;4162350;28;20026;-78
2021/04/16 01:39:11;;;;;;;7.95;5.22;;;-0.80;99.90;;;;;;4163806;28;20026;-77
2021/04/16 01:41:13;;;;;;;8.35;4.70;;;-0.80;99.90;;;;;;4160760;28;20021;-77
2021/04/16 01:43:21;;;;;;;7.80;5.28;;;-0.80;99.90;;;;;;4163836;28;20477;-77
2021/04/16 01:45:25;;;;;;;7.93;4.78;;;-0.80;99.90;;;;;;4155600;28;20116;-77
2021/04/16 01:47:26;;;;;;;9.43;4.95;;;-0.80;99.90;;;;;;4155541;28;20034;-77
2021/04/16 01:49:31;;;;;;;6.82;5.32;;;-0.80;99.90;;;;;;4161965;28;20071;-78
2021/04/16 01:51:34;;;;;;;6.78;4.72;;;-0.80;99.90;;;;;;4139906;28;20052;-78
2021/04/16 01:53:34;;;;;;;6.68;4.93;;;-0.80;99.90;;;;;;4156683;28;20041;-77
2021/04/16 01:55:35;;;;;;;7.22;4.93;;;-0.90;99.90;;;;;;4161884;28;20036;-77
2021/04/16 01:57:35;;;;;;;7.88;4.70;;;-0.90;99.90;;;;;;4161965;28;20030;-77
2021/04/16 01:59:39;;;;;;;9.57;6.78;;;-0.90;99.90;;;;;;4162053;28;20116;-78
2021/04/16 02:01:42;;;;;;;;;;;-0.90;99.90;;;;;;4163979;28;20060;-77
2021/04/16 02:03:43;;;;;;;7.15;4.93;;;-0.90;99.90;;;;;;4161490;28;19909;-77
2021/04/16 02:05:44;;;;;;;7.63;5.05;;;-0.90;99.90;;;;;;4161804;28;20036;-78
2021/04/16 02:07:44;;;;;;;8.57;6.07;;;-0.70;99.90;;;;;;4162101;28;20468;-77
2021/04/16 02:09:45;;;;;;;7.88;5.25;;;-0.70;99.90;;;;;;4163213;28;20036;-78
2021/04/16 02:11:46;;;;;;;7.38;5.03;;;-0.70;99.90;;;;;;4162100;28;20046;-77
2021/04/16 02:13:47;;;;;;;8.45;5.93;;;-0.70;99.90;;;;;;4161873;28;20036;-77
2021/04/16 02:15:48;;;;;;;8.88;4.60;;;-0.70;99.90;;;;;;4162010;28;20030;-77
2021/04/16 02:17:48;;;;;;;9.20;5.60;;;-0.80;99.90;;;;;;4161520;28;20033;-77
2021/04/16 02:19:49;;;;;;;7.93;4.85;;;-0.80;99.90;;;;;;4161667;28;20119;-78
2021/04/16 02:21:50;;;;;;;9.10;5.88;;;-0.80;99.90;;;;;;4163072;28;20030;-77
2021/04/16 02:23:51;;;;;;;9.88;5.60;;;-0.70;99.90;;;;;;4161910;28;20123;-77
2021/04/16 02:25:52;;;;;;;10.85;5.82;;;-0.70;99.90;;;;;;4161891;28;20532;-78
2021/04/16 02:27:53;;;;;;;8.13;5.70;;;-0.70;99.90;;;;;;4161077;28;20064;-78
2021/04/16 02:29:55;;;;;;;7.57;5.47;;;-0.60;99.90;;;;;;4163130;28;20048;-77
2021/04/16 02:31:56;;;;;;;8.25;5.85;;;-0.60;99.90;;;;;;4161593;28;20489;-77
2021/04/16 02:33:57;;;;;;;10.20;5.47;;;-0.60;99.90;;;;;;4163088;28;20029;-77
2021/04/16 02:35:57;;;;;;;8.73;5.53;;;-0.60;99.90;;;;;;4161322;28;20141;-76
2021/04/16 02:37:59;;;;;;;7.55;5.25;;;-0.60;99.90;;;;;;4162664;28;20484;-77
2021/04/16 02:39:59;;;;;;;7.10;5.90;;;-0.70;99.90;;;;;;4161330;28;20034;-77
2021/04/16 02:42:00;;;;;;;7.47;5.65;;;-0.70;99.90;;;;;;4161591;28;20476;-76
2021/04/16 02:44:03;;;;;;;11.60;6.18;;;-0.60;99.90;;;;;;4163267;28;20424;-76
2021/04/16 02:46:03;;;;;;;7.05;5.50;;;-0.60;99.90;;;;;;4160185;28;20543;-78
2021/04/16 02:48:05;;;;;;;10.75;6.57;;;-0.70;99.90;;;;;;4159784;28;20030;-77
2021/04/16 02:50:11;;;;;;;8.88;5.60;;;-0.70;99.90;;;;;;4159604;28;20029;-76
2021/04/16 02:52:11;;;;;;;11.07;7.18;;;-0.80;99.90;;;;;;4159634;28;20029;-77
2021/04/16 02:54:12;;;;;;;9.43;6.07;;;-0.80;99.90;;;;;;4149648;28;20018;-77
2021/04/16 02:56:13;;;;;;;8.15;5.93;;;-0.80;99.90;;;;;;4161181;28;20018;-78
2021/04/16 02:58:14;;;;;;;8.65;5.85;;;-0.80;99.90;;;;;;4159222;28;20077;-78
2021/04/16 03:00:19;;;;;;;9.77;6.20;;;-0.90;99.90;;;;;;4159647;28;20033;-78
2021/04/16 03:02:20;;;;;;;7.82;6.30;;;-0.90;99.90;;;;;;4159319;28;20025;-78
2021/04/16 03:04:20;;;;;;;12.27;6.88;;;-0.90;99.90;;;;;;4160826;28;20799;-77
2021/04/16 03:06:22;;;;;;;7.93;6.20;;;-0.90;99.90;;;;;;4160946;28;20117;-77
2021/04/16 03:08:23;;;;;;;11.85;6.93;;;-1.00;99.90;;;;;;4161016;28;20025;-77
2021/04/16 03:10:30;;;;;;;11.50;6.82;;;-1.00;99.90;;;;;;4159570;28;20173;-77
2021/04/16 03:12:31;;;;;;;11.65;6.15;;;-1.00;99.90;;;;;;4159325;28;20378;-77
2021/04/16 03:14:31;;;;;;;10.68;6.80;;;-1.10;99.90;;;;;;4161438;28;20044;-77
2021/04/16 03:16:33;;;;;;;13.10;7.03;;;-1.10;99.90;;;;;;4165697;28;20506;-77
2021/04/16 03:18:33;;;;;;;10.23;6.55;;;-1.10;99.90;;;;;;4164016;28;20084;-77
2021/04/16 03:20:34;;;;;;;12.18;7.10;;;-1.10;99.90;;;;;;4164630;28;20040;-77
2021/04/16 03:22:35;;;;;;;10.20;7.38;;;-1.10;99.90;;;;;;4164625;28;20026;-77
2021/04/16 03:24:36;;;;;;;8.27;6.75;;;-1.10;99.90;;;;;;4164627;28;20038;-78
2021/04/16 03:26:37;;;;;;;14.48;7.70;;;-1.20;99.90;;;;;;4164169;28;20037;-77
2021/04/16 03:28:37;;;;;;;13.07;7.35;;;-1.20;99.90;;;;;;4168740;28;20033;-78
2021/04/16 03:30:38;;;;;;;11.80;7.18;;;-1.30;99.90;;;;;;4171166;28;20123;-78
2021/04/16 03:32:39;;;;;;;11.95;7.20;;;-1.30;99.90;;;;;;4164096;28;20115;-77
2021/04/16 03:34:40;;;;;;;12.23;7.45;;;-1.30;99.90;;;;;;4164394;28;20457;-78
2021/04/16 03:36:40;;;;;;;18.58;9.73;;;-1.40;99.90;;;;;;4160437;28;20026;-79
2021/04/16 03:38:41;;;;;;;11.50;8.10;;;-1.30;99.90;;;;;;4165952;28;20030;-78
2021/04/16 03:40:42;;;;;;;15.77;8.57;;;-1.30;99.90;;;;;;4159494;28;20657;-77
2021/04/16 03:42:43;;;;;;;11.00;8.55;;;-1.30;99.90;;;;;;4166139;28;20033;-77
2021/04/16 03:44:43;;;;;;;15.52;8.00;;;-1.40;99.90;;;;;;4164197;28;20052;-77
2021/04/16 03:46:44;;;;;;;13.15;9.60;;;-1.40;99.90;;;;;;4163693;28;20044;-78
2021/04/16 03:48:45;;;;;;;18.38;8.32;;;-1.40;99.90;;;;;;4163962;28;20030;-78
2021/04/16 03:50:45;;;;;;;19.83;8.60;;;-1.40;99.90;;;;;;4165381;28;20049;-77
2021/04/16 03:52:47;;;;;;;18.13;8.80;;;-1.40;99.90;;;;;;4163839;28;20030;-77
2021/04/16 03:54:47;;;;;;;15.60;8.15;;;-1.40;99.90;;;;;;4163955;28;20393;-78
2021/04/16 03:56:49;;;;;;;17.58;9.90;;;-1.40;99.90;;;;;;4147647;28;20060;-78
2021/04/16 03:58:49;;;;;;;17.30;9.20;;;-1.40;99.90;;;;;;4173304;28;20500;-78
2021/04/16 04:00:50;;;;;;;13.50;8.02;;;-1.50;99.90;;;;;;4163260;28;20148;-77
2021/04/16 04:02:51;;;;;;;14.75;8.75;;;-1.50;99.90;;;;;;4163638;28;20112;-78
2021/04/16 04:04:52;;;;;;;14.63;7.40;;;-1.50;99.90;;;;;;4163857;28;20025;-78
2021/04/16 04:06:52;;;;;;;17.73;9.23;;;-1.50;99.90;;;;;;4181548;28;20554;-77
2021/04/16 04:08:53;;;;;;;13.77;8.88;;;-1.40;99.90;;;;;;4163705;28;20535;-78
2021/04/16 04:10:53;;;;;;;18.58;9.23;;;-1.40;99.90;;;;;;4163415;28;20151;-78
2021/04/16 04:12:54;;;;;;;18.10;10.68;;;-1.30;99.90;;;;;;4163510;28;20017;-78
2021/04/16 04:14:55;;;;;;;21.95;9.80;;;-1.20;99.90;;;;;;4163929;28;20109;-78
2021/04/16 04:17:01;;;;;;;14.80;9.52;;;-1.10;99.90;;;;;;4181357;28;20574;-77
2021/04/16 04:19:01;;;;;;;11.65;9.00;;;-1.00;99.90;;;;;;4163017;28;20615;-79
2021/04/16 04:21:03;;;;;;;14.52;9.32;;;-1.00;99.90;;;;;;4163405;28;20037;-77
2021/04/16 04:23:05;;;;;;;17.30;9.45;;;-1.00;99.90;;;;;;4163605;28;20030;-79
2021/04/16 04:25:08;;;;;;;17.50;9.15;;;-1.00;99.90;;;;;;4181004;28;20458;-77
2021/04/16 04:27:09;;;;;;;15.23;8.93;;;-1.10;99.90;;;;;;4180359;28;20056;-77
2021/04/16 04:29:11;;;;;;;14.27;9.40;;;-1.20;99.90;;;;;;4170149;28;20033;-78
2021/04/16 04:31:11;;;;;;;17.15;9.30;;;-1.20;99.90;;;;;;4176230;28;20389;-78
2021/04/16 04:33:12;;;;;;;18.10;8.57;;;-1.30;99.90;;;;;;4174277;28;20033;-78
2021/04/16 04:35:14;;;;;;;16.27;9.18;;;-1.30;99.90;;;;;;4196283;28;20027;-78
2021/04/16 04:37:15;;;;;;;15.20;9.52;;;-1.30;99.90;;;;;;4188988;28;20356;-77
2021/04/16 04:39:16;;;;;;;16.17;9.48;;;-1.40;99.90;;;;;;4181571;28;20032;-77
2021/04/16 04:41:17;;;;;;;15.05;10.10;;;-1.40;99.90;;;;;;4171910;28;20033;-78
2021/04/16 04:43:18;;;;;;;19.77;9.13;;;-1.40;99.90;;;;;;4176215;28;20108;-78
2021/04/16 04:45:19;;;;;;;18.10;9.10;;;-1.40;99.90;;;;;;4194117;28;20029;-77
2021/04/16 04:47:20;;;;;;;18.58;10.68;;;-1.40;99.90;;;;;;4177471;28;20388;-77
2021/04/16 04:49:20;;;;;;;17.95;10.93;;;-1.30;99.90;;;;;;4193151;28;20025;-77
2021/04/16 04:51:21;;;;;;;15.35;10.52;;;-1.20;99.90;;;;;;4173540;28;20061;-78
2021/04/16 04:53:22;;;;;;;17.42;9.98;;;-1.20;99.90;;;;;;4192446;28;20032;-78
2021/04/16 04:55:29;;;;;;;19.52;10.25;;;-1.20;99.90;;;;;;4191937;28;20021;-78
2021/04/16 04:57:30;;;;;;;18.27;10.57;;;-1.30;99.90;;;;;;4170886;28;20045;-78
2021/04/16 04:59:31;;;;;;;23.77;11.25;;;-1.30;99.90;;;;;;4163174;28;20025;-78
2021/04/16 05:01:32;;;;;;;15.70;10.35;;;-1.30;99.90;;;;;;4180824;28;20036;-78
2021/04/16 05:03:33;;;;;;;20.65;10.65;;;-1.30;99.90;;;;;;4173961;28;20366;-78
2021/04/16 05:05:33;;;;;;;18.63;11.30;;;-1.20;99.90;;;;;;4160005;28;20084;-77
2021/04/16 05:07:34;;;;;;;22.00;11.75;;;-1.20;99.90;;;;;;4162846;28;20496;-77
2021/04/16 05:09:35;;;;;;;22.17;11.15;;;-1.10;99.90;;;;;;4162972;28;20041;-77
2021/04/16 05:11:36;;;;;;;16.67;10.77;;;-1.10;99.90;;;;;;4180363;28;20056;-77
2021/04/16 05:13:36;;;;;;;18.30;12.70;;;-1.10;99.90;;;;;;4162690;28;20463;-78
2021/04/16 05:15:37;;;;;;;26.48;13.20;;;-0.90;99.90;;;;;;4162614;28;20032;-77
2021/04/16 05:17:37;;;;;;;18.27;13.35;;;-0.80;99.90;;;;;;4191386;28;20060;-78
2021/04/16 05:19:38;;;;;;;24.65;13.43;;;-0.70;99.90;;;;;;4162441;28;20037;-79
2021/04/16 05:21:39;;;;;;;24.48;14.02;;;-0.50;99.90;;;;;;4186086;28;20079;-78
2021/04/16 05:23:40;;;;;;;27.77;13.95;;;-0.40;99.90;;;;;;4170471;28;20041;-77
2021/04/16 05:25:41;;;;;;;24.00;14.13;;;-0.20;99.90;;;;;;4162374;28;20065;-78
2021/04/16 05:27:41;;;;;;;25.80;14.35;;;-0.10;99.90;;;;;;4161238;28;20037;-78
2021/04/16 05:29:42;;;;;;;26.20;13.98;;;0.10;99.90;;;;;;4176066;28;20052;-76
2021/04/16 05:31:43;;;;;;;19.38;13.82;;;0.20;99.90;;;;;;4179909;28;20040;-78
2021/04/16 05:33:44;;;;;;;26.15;16.15;;;0.30;99.90;;;;;;4186194;28;20104;-78
2021/04/16 05:35:44;;;;;;;28.02;15.45;;;0.40;99.90;;;;;;4187227;28;20025;-77
2021/04/16 05:37:45;;;;;;;25.15;13.90;;;0.60;99.90;;;;;;4178460;28;20033;-78
2021/04/16 05:39:46;;;;;;;28.08;15.10;;;0.60;99.90;;;;;;4161960;28;20142;-78
2021/04/16 05:41:46;;;;;;;26.52;13.45;;;0.80;99.90;;;;;;4179337;28;20045;-77
2021/04/16 05:43:48;;;;;;;23.85;14.95;;;0.90;99.90;;;;;;4162146;28;20041;-78
2021/04/16 05:45:49;;;;;;;24.92;14.25;;;1.00;99.90;;;;;;4162700;28;20369;-77
2021/04/16 05:47:50;;;;;;;20.83;12.65;;;1.10;99.90;;;;;;4161868;28;20112;-78
2021/04/16 05:49:50;;;;;;;24.25;13.20;;;1.10;99.90;;;;;;4162365;28;20099;-78
2021/04/16 05:51:52;;;;;;;19.25;12.30;;;1.20;99.90;;;;;;4179733;28;20029;-77
2021/04/16 05:53:53;;;;;;;20.05;13.05;;;1.20;99.90;;;;;;4179707;28;20048;-78
2021/04/16 05:55:54;;;;;;;22.70;12.10;;;1.30;99.90;;;;;;4162438;28;20369;-77
2021/04/16 05:57:54;;;;;;;21.55;13.30;;;1.30;99.90;;;;;;4162108;28;20132;-78
2021/04/16 05:59:55;;;;;;;23.08;13.68;;;1.40;99.90;;;;;;4162082;28;20056;-77
2021/04/16 06:01:55;;;;;;;22.35;13.20;;;1.40;99.90;;;;;;4161893;28;20029;-76
2021/04/16 06:03:56;;;;;;;25.58;12.30;;;1.50;99.90;;;;;;4152329;28;20053;-78
2021/04/16 06:05:58;;;;;;;23.08;12.05;;;1.50;99.90;;;;;;4161959;28;20075;-78
2021/04/16 06:07:59;;;;;;;17.90;11.52;;;1.60;99.90;;;;;;4162064;28;20037;-78
2021/04/16 06:10:00;;;;;;;19.13;12.02;;;1.60;99.90;;;;;;4161547;28;20165;-78
2021/04/16 06:12:01;;;;;;;19.73;12.23;;;1.70;99.90;;;;;;4161600;28;20037;-78
2021/04/16 06:14:03;;;;;;;21.25;11.60;;;1.70;99.90;;;;;;4178598;28;20033;-79
2021/04/16 06:16:05;;;;;;;18.27;10.18;;;1.80;99.90;;;;;;4164264;28;20032;-79
2021/04/16 06:18:06;;;;;;;20.25;11.55;;;1.80;99.90;;;;;;4163643;28;20204;-79
2021/04/16 06:20:08;;;;;;;19.00;11.20;;;1.90;99.90;;;;;;4170685;28;20042;-77
2021/04/16 06:22:09;;;;;;;20.50;10.63;;;1.80;99.90;;;;;;4186679;28;20479;-78
2021/04/16 06:24:10;;;;;;;20.67;11.65;;;1.80;99.90;;;;;;4165489;28;20033;-79
2021/04/16 06:26:11;;;;;;;34.03;12.35;;;1.90;99.90;;;;;;4152904;28;20045;-79
2021/04/16 06:28:14;;;;;;;20.98;11.27;;;1.90;99.90;;;;;;4153013;28;20517;-78
2021/04/16 06:30:16;;;;;;;;;;;1.90;99.90;;;;;;4163966;28;20025;-79
2021/04/16 06:32:18;;;;;;;22.02;10.98;;;2.00;99.90;;;;;;4167051;28;19914;-77
2021/04/16 06:34:19;;;;;;;16.45;10.57;;;2.10;99.90;;;;;;4151263;28;20029;-79
2021/04/16 06:36:20;;;;;;;25.40;12.02;;;2.10;99.90;;;;;;4165202;28;20032;-77
2021/04/16 06:38:23;;;;;;;19.65;11.80;;;2.20;99.90;;;;;;4180909;28;20032;-79
2021/04/16 06:40:24;;;;;;;;;;;2.30;99.90;;;;;;4181730;28;20051;-78
2021/04/16 06:42:28;;;;;;;21.15;10.93;;;2.30;99.90;;;;;;4168142;28;19912;-77
2021/04/16 06:44:30;;;;;;;;;;;2.40;99.90;;;;;;4183911;28;20461;-79
2021/04/16 06:46:43;;;;;;;17.15;10.48;;;2.50;99.90;;;;;;4161326;28;19913;-77
2021/04/16 06:48:44;;;;;;;19.63;9.98;;;2.70;99.90;;;;;;4165731;28;20036;-80
2021/04/16 06:50:44;;;;;;;19.70;10.20;;;2.90;99.90;;;;;;4160408;28;20088;-80
2021/04/16 06:52:51;;;;;;;20.40;10.50;;;3.00;99.90;;;;;;4176048;28;20056;-79
2021/04/16 06:55:05;;;;;;;21.52;10.18;;;3.10;99.90;;;;;;4175878;28;20025;-80
2021/04/16 06:57:21;;;;;;;17.73;10.88;;;3.20;99.90;;;;;;4157253;28;20064;-80
2021/04/16 06:59:27;;;;;;;21.58;10.65;;;3.20;99.90;;;;;;4158548;28;20045;-80
2021/04/16 07:01:37;;;;;;;17.52;11.05;;;3.30;99.90;;;;;;4176436;28;20503;-79
2021/04/16 07:03:44;;;;;;;19.15;10.13;;;3.30;99.90;;;;;;4157918;28;20053;-79
2021/04/16 07:05:51;;;;;;;18.83;9.77;;;3.40;99.90;;;;;;4158444;28;20029;-80
2021/04/16 07:07:52;;;;;;;17.10;9.07;;;3.50;99.90;;;;;;4178561;28;20393;-80
2021/04/16 07:10:01;;;;;;;15.02;9.27;;;3.70;99.90;;;;;;4161125;28;20038;-80
2021/04/16 07:12:19;;;;;;;14.75;9.68;;;3.90;99.90;;;;;;4160810;28;20030;-80
2021/04/16 07:14:40;;;;;;;12.02;8.95;;;4.00;99.90;;;;;;4161201;28;20056;-80
2021/04/16 07:16:41;;;;;;;16.55;8.80;;;4.20;99.90;;;;;;4159636;28;20061;-79
2021/04/16 07:18:46;;;;;;;18.90;9.82;;;4.20;99.90;;;;;;4154099;28;20034;-80
2021/04/16 07:20:47;;;;;;;14.50;7.55;;;4.30;99.90;;;;;;4160244;28;20033;-80
2021/04/16 07:22:50;;;;;;;15.80;8.32;;;4.40;99.90;;;;;;4178528;28;20543;-80
2021/04/16 07:24:52;;;;;;;15.25;9.00;;;4.50;99.90;;;;;;4170341;28;20021;-80
2021/04/16 07:26:58;;;;;;;16.65;8.63;;;4.60;99.90;;;;;;4151973;28;20033;-80
2021/04/16 07:28:59;;;;;;;30.08;10.00;;;4.70;99.90;;;;;;4178578;28;20026;-80
2021/04/16 07:31:56;;;;;;;14.75;8.18;;;4.80;99.90;;;;;;4161500;28;20029;-80
2021/04/16 07:33:58;;;;;;;12.02;7.88;;;4.90;99.90;;;;;;4149653;28;20026;-79
2021/04/16 07:36:20;;;;;;;15.70;7.90;;;5.00;99.90;;;;;;4156084;28;20428;-80
2021/04/16 07:38:34;;;;;;;15.95;8.38;;;5.10;99.90;;;;;;4163695;28;20483;-80
2021/04/16 07:40:38;;;;;;;14.20;7.15;;;5.30;99.90;;;;;;4160456;28;20038;-80
2021/04/16 07:42:44;;;;;;;15.60;7.75;;;5.40;99.90;;;;;;4173440;28;20026;-81
2021/04/16 07:45:08;;;;;;;15.23;7.53;;;5.50;99.90;;;;;;4158057;28;20025;-80
2021/04/16 07:47:11;;;;;;;14.10;7.28;;;5.60;99.90;;;;;;4178283;28;20480;-81
2021/04/16 07:49:14;;;;;;;;;;;5.60;99.90;;;;;;4161089;28;20500;-81
2021/04/16 07:51:30;;;;;;;10.35;7.38;;;5.70;99.90;;;;;;4160594;28;19967;-80
2021/04/16 07:53:40;;;;;;;12.02;6.88;;;5.80;99.90;;;;;;4178666;28;20069;-80
2021/04/16 07:55:41;;;;;;;13.48;7.40;;;6.00;99.90;;;;;;4178119;28;20029;-81
2021/04/16 07:58:02;;;;;;;13.35;6.97;;;6.10;99.90;;;;;;4178341;28;20048;-81
2021/04/16 08:00:11;;;;;;;16.92;6.22;;;6.30;99.90;;;;;;4160653;28;20030;-80
2021/04/16 08:02:25;;;;;;;9.77;6.47;;;6.50;99.90;;;;;;4162306;28;20029;-80
2021/04/16 08:04:36;;;;;;;10.05;7.40;;;6.60;99.90;;;;;;4167596;28;20021;-81
2021/04/16 08:06:42;;;;;;;16.52;8.18;;;6.70;99.90;;;;;;4155384;28;20120;-80
2021/04/16 08:08:46;;;;;;;11.98;7.40;;;6.80;99.90;;;;;;4163350;28;20165;-80
2021/04/16 08:11:10;;;;;;;16.60;7.50;;;6.90;99.90;;;;;;4163195;28;20030;-81
2021/04/16 08:13:23;;;;;;;14.40;6.82;;;7.10;99.90;;;;;;4162878;28;20022;-80
2021/04/16 08:15:28;;;;;;;;;;;7.20;99.90;;;;;;4164358;28;20033;-81
2021/04/16 08:17:30;;;;;;;9.02;5.80;;;7.40;99.90;;;;;;4163706;28;19959;-80
2021/04/16 08:19:36;;;;;;;10.50;5.85;;;7.50;99.90;;;;;;4163563;28;20026;-81
2021/04/16 08:21:46;;;;;;;8.80;6.20;;;7.60;99.90;;;;;;4181313;28;20079;-80
2021/04/16 08:23:55;;;;;;;11.18;6.55;;;7.70;99.90;;;;;;4163657;28;20810;-81
2021/04/16 08:25:57;;;;;;;12.82;6.40;;;7.80;99.90;;;;;;4164139;28;20030;-81
2021/04/16 08:28:08;;;;;;;7.38;6.13;;;7.90;99.90;;;;;;4181318;28;20105;-80
2021/04/16 08:30:10;;;;;;;8.25;5.70;;;8.10;99.90;;;;;;4163429;28;20397;-81
2021/04/16 08:32:33;;;;;;;6.30;4.68;;;8.20;99.90;;;;;;4163518;28;20077;-81
2021/04/16 08:34:43;;;;;;;10.40;5.00;;;8.30;99.90;;;;;;4163665;28;20036;-80
2021/04/16 08:36:44;;;;;;;9.30;5.15;;;8.40;99.90;;;;;;4163742;28;20187;-81
2021/04/16 08:38:57;;;;;;;11.77;5.90;;;8.50;99.90;;;;;;4181373;28;20112;-82
2021/04/16 08:41:02;;;;;;;12.25;5.93;;;8.60;99.90;;;;;;4180994;28;20033;-81
2021/04/16 08:43:03;;;;;;;7.60;5.40;;;8.60;99.90;;;;;;4180900;28;20388;-80
2021/04/16 08:45:10;;;;;;;10.35;6.25;;;8.70;99.90;;;;;;4163326;28;20087;-79
2021/04/16 08:47:39;;;;;;;8.68;6.35;;;8.80;99.90;;;;;;4163578;28;20056;-81
2021/04/16 08:49:39;;;;;;;15.35;6.50;;;8.90;99.90;;;;;;4163336;28;20045;-81
2021/04/16 08:51:46;;;;;;;10.77;5.00;;;9.00;99.90;;;;;;4180636;28;20614;-81
2021/04/16 08:53:47;;;;;;;8.93;4.88;;;9.10;99.90;;;;;;4163138;28;20048;-81
2021/04/16 08:55:52;;;;;;;7.85;5.15;;;9.20;99.90;;;;;;4163079;28;20508;-81
2021/04/16 08:58:05;;;;;;;9.88;4.45;;;9.30;99.90;;;;;;4162947;28;20461;-81
2021/04/16 09:00:06;;;;;;;7.97;5.32;;;9.40;99.90;;;;;;4162777;28;20440;-81
2021/04/16 09:02:16;;;;;;;8.52;5.55;;;9.60;99.90;;;;;;4181036;28;20041;-81
2021/04/16 09:04:44;;;;;;;10.48;4.82;;;9.70;99.90;;;;;;4150337;28;20041;-81
2021/04/16 09:06:49;;;;;;;6.53;4.45;;;9.80;99.90;;;;;;4174586;28;20033;-81
2021/04/16 09:08:50;;;;;;;7.68;4.82;;;9.90;99.90;;;;;;4162618;28;20049;-81
2021/04/16 09:10:56;;;;;;;9.40;4.53;;;10.00;99.90;;;;;;4161008;28;20022;-81
2021/04/16 09:13:01;;;;;;;12.00;4.80;;;10.20;99.90;;;;;;4180446;28;20033;-81
2021/04/16 09:15:02;;;;;;;7.63;4.55;;;10.20;99.90;;;;;;4181020;28;20047;-82
2021/04/16 09:17:04;;;;;;;8.82;4.20;;;10.50;99.90;;;;;;4162332;28;20033;-81
2021/04/16 09:19:23;;;;;;;7.15;3.47;;;10.60;99.90;;;;;;4180526;28;20021;-82
2021/04/16 09:21:31;;;;;;;5.63;4.68;;;10.80;99.90;;;;;;4174028;28;20071;-80
2021/04/16 09:23:32;;;;;;;7.55;4.32;;;10.90;99.90;;;;;;4162693;28;20037;-80
2021/04/16 09:25:33;;;;;;;7.35;4.22;;;11.10;99.90;;;;;;4162641;28;20184;-82
2021/04/16 09:27:39;;;;;;;10.15;4.57;;;11.20;99.90;;;;;;4162114;28;20036;-80
2021/04/16 09:29:41;;;;;;;5.00;3.45;;;11.40;99.90;;;;;;4161968;28;20068;-80
2021/04/16 09:31:49;;;;;;;6.53;3.88;;;11.60;99.90;;;;;;4162638;28;20149;-79
2021/04/16 09:34:16;;;;;;;6.10;3.90;;;11.90;99.90;;;;;;4162466;28;20505;-80
2021/04/16 09:36:28;;;;;;;5.85;3.15;;;12.10;99.90;;;;;;4162225;28;20041;-81
2021/04/16 09:38:46;;;;;;;4.75;3.10;;;12.40;93.30;;;;;;4167672;28;20060;-80
2021/04/16 09:41:22;;;;;;;4.30;3.60;;;12.40;93.30;;;;;;4180045;28;20116;-77
2021/04/16 09:43:28;;;;;;;5.63;3.55;;;12.50;86.10;;;;;;4161739;28;20087;-81
2021/04/16 09:45:32;;;;;;;6.93;3.10;;;12.50;83.40;;;;;;4162086;28;20035;-80
2021/04/16 09:47:44;;;;;;;5.45;3.78;;;12.60;85.60;;;;;;4162159;28;20056;-81
2021/04/16 09:50:00;;;;;;;3.67;3.00;;;12.70;82.80;;;;;;4158556;28;20570;-80
2021/04/16 09:52:26;;;;;;;5.00;3.45;;;12.80;80.30;;;;;;4180571;28;20057;-81
2021/04/16 09:54:30;;;;;;;11.80;5.22;;;13.00;85.20;;;;;;4177934;28;20049;-80
2021/04/16 09:56:30;;;;;;;10.27;4.65;;;13.10;79.70;;;;;;4169303;28;20030;-80
2021/04/16 09:58:34;;;;;;;8.88;3.75;;;12.90;82.20;;;;;;4179019;28;20175;-79
2021/04/16 10:00:53;;;;;;;4.82;3.35;;;13.20;83.10;;;;;;4166871;28;20713;-80
2021/04/16 10:03:20;;;;;;;8.60;3.90;;;13.30;77.80;;;;;;4164182;28;20037;-80
2021/04/16 10:05:30;;;;;;;9.05;4.03;;;13.20;78.20;;;;;;4178750;28;20584;-80
2021/04/16 10:07:50;;;;;;;5.38;3.78;;;13.30;77.90;;;;;;4178897;28;20391;-83
2021/04/16 10:09:59;;;;;;;4.82;2.90;;;13.70;75.40;;;;;;4161343;28;20120;-82
2021/04/16 10:12:16;;;;;;;5.40;3.75;;;13.80;75.00;;;;;;4183234;28;20035;-81
2021/04/16 10:14:21;;;;;;;5.03;3.50;;;13.70;73.80;;;;;;4165218;28;20029;-84
2021/04/16 10:16:26;;;;;;;5.82;4.15;;;13.90;76.50;;;;;;4163711;28;20099;-81
2021/04/16 10:18:36;;;;;;;3.92;3.40;;;14.00;74.00;;;;;;4176609;28;20036;-82
2021/04/16 10:20:41;;;;;;;5.65;3.50;;;14.10;75.10;;;;;;4179582;28;20090;-81
2021/04/16 10:22:42;;;;;;;5.35;3.13;;;14.20;75.40;;;;;;4171192;28;20087;-84
2021/04/16 11:00:37;;;;;;;14.25;4.50;;;16.50;59.70;;;;;;4120997;28;19969;-81
2021/04/16 11:08:14;;;;;;;6.45;3.15;;;15.40;61.80;;;;;;4178327;28;20545;-79
2021/04/16 11:23:40;;;;;;;6.93;3.55;;;14.40;63.60;;;;;;4168728;28;20025;-84
2021/04/16 12:39:44;;;;;;;5.68;3.38;;;18.80;52.30;;;;;;4180076;28;20039;-85
2021/04/16 12:41:57;;;;;;;3.60;3.22;;;19.30;51.40;;;;;;4162891;28;20053;-85
2021/04/16 12:43:58;;;;;;;6.70;3.40;;;19.80;52.40;;;;;;4162979;28;20037;-83
2021/04/16 12:46:00;;;;;;;5.15;3.53;;;20.20;50.20;;;;;;4180515;28;20440;-79
2021/04/16 12:48:00;;;;;;;4.63;2.95;;;19.80;49.50;;;;;;4161560;28;20120;-84
2021/04/16 12:50:04;;;;;;;3.70;2.90;;;19.40;50.80;;;;;;4162510;28;20558;-83
2021/04/16 12:52:06;;;;;;;4.57;3.22;;;19.00;50.80;;;;;;4162693;28;20044;-84
2021/04/16 12:54:07;;;;;;;4.35;3.58;;;17.90;52.40;;;;;;4163352;28;20029;-84